sensor_id;sensor_type;location;lat;lon;timestamp;temperature;humidity
24402;DHT22;12539;48.808;11.292;2022-07-29T00:02:12;25.50;51.80
24402;DHT22;12539;48.808;11.292;2022-07-29T00:04:37;25.30;52.40
24402;DHT22;12539;48.808;11.292;2022-07-29T00:07:04;25.30;52.90
24402;DHT22;12539;48.808;11.292;2022-07-29T00:09:30;25.30;53.50
24402;DHT22;12539;48.808;11.292;2022-07-29T00:11:58;25.20;53.80
24402;DHT22;12539;48.808;11.292;2022-07-29T00:14:24;25.10;53.80
24402;DHT22;12539;48.808;11.292;2022-07-29T00:16:50;25.00;54.00
24402;DHT22;12539;48.808;11.292;2022-07-29T00:19:16;25.00;54.10
24402;DHT22;12539;48.808;11.292;2022-07-29T00:21:42;25.00;54.40
24402;DHT22;12539;48.808;11.292;2022-07-29T00:24:08;25.00;54.40
24402;DHT22;12539;48.808;11.292;2022-07-29T00:26:33;24.90;54.60
24402;DHT22;12539;48.808;11.292;2022-07-29T00:29:00;25.00;54.40
24402;DHT22;12539;48.808;11.292;2022-07-29T00:31:26;25.00;54.20
24402;DHT22;12539;48.808;11.292;2022-07-29T00:33:52;25.00;54.10
24402;DHT22;12539;48.808;11.292;2022-07-29T00:36:18;24.90;54.00
24402;DHT22;12539;48.808;11.292;2022-07-29T00:38:49;24.90;54.00
24402;DHT22;12539;48.808;11.292;2022-07-29T00:41:15;25.00;54.10
24402;DHT22;12539;48.808;11.292;2022-07-29T00:43:42;25.00;54.10
24402;DHT22;12539;48.808;11.292;2022-07-29T00:46:07;25.00;54.00
24402;DHT22;12539;48.808;11.292;2022-07-29T00:48:33;25.10;53.90
24402;DHT22;12539;48.808;11.292;2022-07-29T00:50:59;25.00;54.00
24402;DHT22;12539;48.808;11.292;2022-07-29T00:53:27;25.10;54.10
24402;DHT22;12539;48.808;11.292;2022-07-29T00:55:56;25.00;54.00
24402;DHT22;12539;48.808;11.292;2022-07-29T00:58:23;25.10;54.00
24402;DHT22;12539;48.808;11.292;2022-07-29T01:00:49;25.00;53.90
24402;DHT22;12539;48.808;11.292;2022-07-29T01:03:15;25.00;54.20
24402;DHT22;12539;48.808;11.292;2022-07-29T01:05:42;25.00;54.10
24402;DHT22;12539;48.808;11.292;2022-07-29T01:08:08;25.00;54.00
24402;DHT22;12539;48.808;11.292;2022-07-29T01:10:38;25.00;54.00
24402;DHT22;12539;48.808;11.292;2022-07-29T01:13:04;25.10;53.90
24402;DHT22;12539;48.808;11.292;2022-07-29T01:15:31;25.00;54.10
24402;DHT22;12539;48.808;11.292;2022-07-29T01:18:28;24.80;54.10
24402;DHT22;12539;48.808;11.292;2022-07-29T01:27:25;25.00;53.90
24402;DHT22;12539;48.808;11.292;2022-07-29T01:29:42;25.00;53.70
24402;DHT22;12539;48.808;11.292;2022-07-29T01:32:11;25.10;53.40
24402;DHT22;12539;48.808;11.292;2022-07-29T01:34:54;25.10;53.90
24402;DHT22;12539;48.808;11.292;2022-07-29T01:37:23;25.10;53.40
24402;DHT22;12539;48.808;11.292;2022-07-29T01:39:52;25.10;53.50
24402;DHT22;12539;48.808;11.292;2022-07-29T01:42:39;25.00;53.70
24402;DHT22;12539;48.808;11.292;2022-07-29T01:45:37;25.00;53.70
24402;DHT22;12539;48.808;11.292;2022-07-29T01:48:16;25.00;54.10
24402;DHT22;12539;48.808;11.292;2022-07-29T01:50:50;24.80;54.70
24402;DHT22;12539;48.808;11.292;2022-07-29T01:53:33;24.70;55.40
24402;DHT22;12539;48.808;11.292;2022-07-29T01:56:02;24.40;56.60
24402;DHT22;12539;48.808;11.292;2022-07-29T01:58:31;24.10;57.00
24402;DHT22;12539;48.808;11.292;2022-07-29T02:00:58;24.00;57.00
24402;DHT22;12539;48.808;11.292;2022-07-29T02:03:25;24.10;56.90
24402;DHT22;12539;48.808;11.292;2022-07-29T02:05:53;24.10;57.00
24402;DHT22;12539;48.808;11.292;2022-07-29T02:08:21;24.20;56.80
24402;DHT22;12539;48.808;11.292;2022-07-29T02:10:48;24.20;56.60
24402;DHT22;12539;48.808;11.292;2022-07-29T02:13:16;24.30;56.40
24402;DHT22;12539;48.808;11.292;2022-07-29T02:15:44;24.40;56.70
24402;DHT22;12539;48.808;11.292;2022-07-29T02:18:16;24.40;55.90
24402;DHT22;12539;48.808;11.292;2022-07-29T02:20:45;24.50;56.10
24402;DHT22;12539;48.808;11.292;2022-07-29T02:23:22;24.40;56.50
24402;DHT22;12539;48.808;11.292;2022-07-29T02:25:49;24.20;57.30
24402;DHT22;12539;48.808;11.292;2022-07-29T02:28:17;24.10;57.50
24402;DHT22;12539;48.808;11.292;2022-07-29T02:30:45;24.00;57.50
24402;DHT22;12539;48.808;11.292;2022-07-29T02:33:14;24.00;57.60
24402;DHT22;12539;48.808;11.292;2022-07-29T02:35:41;24.10;57.30
24402;DHT22;12539;48.808;11.292;2022-07-29T02:38:10;24.10;57.10
24402;DHT22;12539;48.808;11.292;2022-07-29T02:40:58;24.20;56.90
24402;DHT22;12539;48.808;11.292;2022-07-29T02:43:24;24.30;56.80
24402;DHT22;12539;48.808;11.292;2022-07-29T02:45:53;24.30;56.50
24402;DHT22;12539;48.808;11.292;2022-07-29T02:48:28;24.40;56.50
24402;DHT22;12539;48.808;11.292;2022-07-29T02:51:05;24.40;56.60
24402;DHT22;12539;48.808;11.292;2022-07-29T02:53:33;24.40;56.60
24402;DHT22;12539;48.808;11.292;2022-07-29T02:56:04;24.50;56.50
24402;DHT22;12539;48.808;11.292;2022-07-29T02:58:39;24.50;56.40
24402;DHT22;12539;48.808;11.292;2022-07-29T03:01:21;24.60;56.60
24402;DHT22;12539;48.808;11.292;2022-07-29T03:03:49;24.60;56.70
24402;DHT22;12539;48.808;11.292;2022-07-29T03:06:16;24.60;56.70
24402;DHT22;12539;48.808;11.292;2022-07-29T03:08:44;24.60;56.70
24402;DHT22;12539;48.808;11.292;2022-07-29T03:11:10;24.60;56.70
24402;DHT22;12539;48.808;11.292;2022-07-29T03:13:36;24.60;57.00
24402;DHT22;12539;48.808;11.292;2022-07-29T03:16:03;24.60;57.20
24402;DHT22;12539;48.808;11.292;2022-07-29T03:18:30;24.50;57.00
24402;DHT22;12539;48.808;11.292;2022-07-29T03:20:56;24.50;56.90
24402;DHT22;12539;48.808;11.292;2022-07-29T03:23:22;24.50;57.00
24402;DHT22;12539;48.808;11.292;2022-07-29T03:25:52;24.50;57.40
24402;DHT22;12539;48.808;11.292;2022-07-29T03:28:18;24.50;57.90
24402;DHT22;12539;48.808;11.292;2022-07-29T03:30:44;24.50;57.90
24402;DHT22;12539;48.808;11.292;2022-07-29T03:33:10;24.50;57.60
24402;DHT22;12539;48.808;11.292;2022-07-29T03:35:36;24.50;57.80
24402;DHT22;12539;48.808;11.292;2022-07-29T03:38:02;24.50;58.10
24402;DHT22;12539;48.808;11.292;2022-07-29T03:40:32;24.40;58.20
24402;DHT22;12539;48.808;11.292;2022-07-29T03:43:00;24.40;58.30
24402;DHT22;12539;48.808;11.292;2022-07-29T03:45:28;24.40;58.50
24402;DHT22;12539;48.808;11.292;2022-07-29T03:47:59;24.30;58.40
24402;DHT22;12539;48.808;11.292;2022-07-29T03:50:27;24.30;58.50
24402;DHT22;12539;48.808;11.292;2022-07-29T03:52:54;24.30;58.90
24402;DHT22;12539;48.808;11.292;2022-07-29T03:55:20;24.20;59.00
24402;DHT22;12539;48.808;11.292;2022-07-29T03:57:46;24.10;59.20
24402;DHT22;12539;48.808;11.292;2022-07-29T04:00:13;24.00;59.40
24402;DHT22;12539;48.808;11.292;2022-07-29T04:02:41;24.00;59.60
24402;DHT22;12539;48.808;11.292;2022-07-29T04:05:14;24.00;59.60
24402;DHT22;12539;48.808;11.292;2022-07-29T04:07:46;24.00;59.40
24402;DHT22;12539;48.808;11.292;2022-07-29T04:10:12;24.00;59.40
24402;DHT22;12539;48.808;11.292;2022-07-29T04:12:38;24.00;59.20
24402;DHT22;12539;48.808;11.292;2022-07-29T04:15:04;24.00;59.10
24402;DHT22;12539;48.808;11.292;2022-07-29T04:17:30;24.10;59.20
24402;DHT22;12539;48.808;11.292;2022-07-29T04:19:56;24.10;59.20
24402;DHT22;12539;48.808;11.292;2022-07-29T04:22:22;24.10;58.80
24402;DHT22;12539;48.808;11.292;2022-07-29T04:24:47;24.10;58.70
24402;DHT22;12539;48.808;11.292;2022-07-29T04:27:13;24.10;58.70
24402;DHT22;12539;48.808;11.292;2022-07-29T04:29:39;24.10;58.60
24402;DHT22;12539;48.808;11.292;2022-07-29T04:32:05;24.10;58.50
24402;DHT22;12539;48.808;11.292;2022-07-29T04:34:30;24.10;58.60
24402;DHT22;12539;48.808;11.292;2022-07-29T04:36:56;24.10;58.90
24402;DHT22;12539;48.808;11.292;2022-07-29T04:39:22;24.10;59.10
24402;DHT22;12539;48.808;11.292;2022-07-29T04:41:48;24.10;59.20
24402;DHT22;12539;48.808;11.292;2022-07-29T04:44:14;24.10;59.30
24402;DHT22;12539;48.808;11.292;2022-07-29T04:46:40;24.10;59.40
24402;DHT22;12539;48.808;11.292;2022-07-29T04:49:06;24.10;59.40
24402;DHT22;12539;48.808;11.292;2022-07-29T04:51:31;24.10;59.60
24402;DHT22;12539;48.808;11.292;2022-07-29T04:53:57;24.20;59.70
24402;DHT22;12539;48.808;11.292;2022-07-29T04:56:23;24.10;59.90
24402;DHT22;12539;48.808;11.292;2022-07-29T04:58:54;24.10;60.10
24402;DHT22;12539;48.808;11.292;2022-07-29T05:01:20;24.00;60.90
24402;DHT22;12539;48.808;11.292;2022-07-29T05:03:46;23.90;61.60
24402;DHT22;12539;48.808;11.292;2022-07-29T05:06:11;23.90;62.60
24402;DHT22;12539;48.808;11.292;2022-07-29T05:08:37;23.80;63.10
24402;DHT22;12539;48.808;11.292;2022-07-29T05:11:03;23.80;63.10
24402;DHT22;12539;48.808;11.292;2022-07-29T05:13:29;23.80;63.50
24402;DHT22;12539;48.808;11.292;2022-07-29T05:15:55;23.90;64.10
24402;DHT22;12539;48.808;11.292;2022-07-29T05:18:24;24.00;64.60
24402;DHT22;12539;48.808;11.292;2022-07-29T05:20:50;24.10;64.60
24402;DHT22;12539;48.808;11.292;2022-07-29T05:23:15;24.10;64.10
24402;DHT22;12539;48.808;11.292;2022-07-29T05:25:41;23.90;63.80
24402;DHT22;12539;48.808;11.292;2022-07-29T05:28:07;23.70;64.60
24402;DHT22;12539;48.808;11.292;2022-07-29T05:30:33;23.60;65.20
24402;DHT22;12539;48.808;11.292;2022-07-29T05:32:58;23.60;65.10
24402;DHT22;12539;48.808;11.292;2022-07-29T05:35:24;23.50;65.20
24402;DHT22;12539;48.808;11.292;2022-07-29T05:37:50;23.50;65.60
24402;DHT22;12539;48.808;11.292;2022-07-29T05:40:16;23.50;65.70
24402;DHT22;12539;48.808;11.292;2022-07-29T05:42:41;23.40;65.70
24402;DHT22;12539;48.808;11.292;2022-07-29T05:45:07;23.40;65.70
24402;DHT22;12539;48.808;11.292;2022-07-29T05:47:34;23.50;66.60
24402;DHT22;12539;48.808;11.292;2022-07-29T05:50:00;23.60;66.00
24402;DHT22;12539;48.808;11.292;2022-07-29T05:52:25;23.60;65.90
24402;DHT22;12539;48.808;11.292;2022-07-29T05:54:51;23.60;66.00
24402;DHT22;12539;48.808;11.292;2022-07-29T05:57:21;23.70;65.90
24402;DHT22;12539;48.808;11.292;2022-07-29T05:59:48;23.70;65.90
24402;DHT22;12539;48.808;11.292;2022-07-29T06:02:14;23.70;65.70
24402;DHT22;12539;48.808;11.292;2022-07-29T06:04:40;23.70;65.50
24402;DHT22;12539;48.808;11.292;2022-07-29T06:07:06;23.80;65.50
24402;DHT22;12539;48.808;11.292;2022-07-29T06:09:32;23.90;65.00
24402;DHT22;12539;48.808;11.292;2022-07-29T06:11:58;24.00;64.70
24402;DHT22;12539;48.808;11.292;2022-07-29T06:14:24;24.20;64.30
24402;DHT22;12539;48.808;11.292;2022-07-29T06:16:51;24.40;63.40
24402;DHT22;12539;48.808;11.292;2022-07-29T06:19:16;24.60;62.70
24402;DHT22;12539;48.808;11.292;2022-07-29T06:21:43;24.80;62.60
24402;DHT22;12539;48.808;11.292;2022-07-29T06:24:13;25.20;62.10
24402;DHT22;12539;48.808;11.292;2022-07-29T06:26:40;26.70;59.40
24402;DHT22;12539;48.808;11.292;2022-07-29T06:29:07;28.90;55.00
24402;DHT22;12539;48.808;11.292;2022-07-29T06:31:34;31.00;50.50
24402;DHT22;12539;48.808;11.292;2022-07-29T06:34:00;32.60;47.00
24402;DHT22;12539;48.808;11.292;2022-07-29T06:36:25;33.70;44.20
24402;DHT22;12539;48.808;11.292;2022-07-29T06:38:51;34.60;42.30
24402;DHT22;12539;48.808;11.292;2022-07-29T06:41:17;35.50;40.60
24402;DHT22;12539;48.808;11.292;2022-07-29T06:43:44;36.40;38.90
24402;DHT22;12539;48.808;11.292;2022-07-29T06:46:15;37.00;38.30
24402;DHT22;12539;48.808;11.292;2022-07-29T06:48:43;37.50;36.20
24402;DHT22;12539;48.808;11.292;2022-07-29T06:51:10;38.00;35.10
24402;DHT22;12539;48.808;11.292;2022-07-29T06:53:37;38.40;34.40
24402;DHT22;12539;48.808;11.292;2022-07-29T06:56:04;38.30;33.90
24402;DHT22;12539;48.808;11.292;2022-07-29T06:58:30;38.30;33.90
24402;DHT22;12539;48.808;11.292;2022-07-29T07:00:57;38.20;33.20
24402;DHT22;12539;48.808;11.292;2022-07-29T07:03:24;38.00;33.50
24402;DHT22;12539;48.808;11.292;2022-07-29T07:05:51;37.30;34.60
24402;DHT22;12539;48.808;11.292;2022-07-29T07:08:17;35.90;36.30
24402;DHT22;12539;48.808;11.292;2022-07-29T07:10:43;34.40;38.60
24402;DHT22;12539;48.808;11.292;2022-07-29T07:13:08;33.20;40.90
24402;DHT22;12539;48.808;11.292;2022-07-29T07:15:35;32.30;42.50
24402;DHT22;12539;48.808;11.292;2022-07-29T07:18:02;31.90;43.20
24402;DHT22;12539;48.808;11.292;2022-07-29T07:20:28;32.50;42.10
24402;DHT22;12539;48.808;11.292;2022-07-29T07:22:54;32.90;41.30
24402;DHT22;12539;48.808;11.292;2022-07-29T07:25:20;32.60;41.70
24402;DHT22;12539;48.808;11.292;2022-07-29T07:27:46;31.80;42.90
24402;DHT22;12539;48.808;11.292;2022-07-29T07:30:12;30.90;44.20
24402;DHT22;12539;48.808;11.292;2022-07-29T07:32:38;30.20;45.70
24402;DHT22;12539;48.808;11.292;2022-07-29T07:35:06;29.80;46.90
24402;DHT22;12539;48.808;11.292;2022-07-29T07:37:32;29.60;47.20
24402;DHT22;12539;48.808;11.292;2022-07-29T07:39:58;29.40;47.90
24402;DHT22;12539;48.808;11.292;2022-07-29T07:42:24;29.30;47.60
24402;DHT22;12539;48.808;11.292;2022-07-29T07:44:50;29.40;47.40
24402;DHT22;12539;48.808;11.292;2022-07-29T07:54:00;29.30;47.30
24402;DHT22;12539;48.808;11.292;2022-07-29T07:56:26;29.70;47.00
24402;DHT22;12539;48.808;11.292;2022-07-29T07:58:51;29.90;46.20
24402;DHT22;12539;48.808;11.292;2022-07-29T08:01:17;30.20;45.60
24402;DHT22;12539;48.808;11.292;2022-07-29T08:03:44;30.40;45.10
24402;DHT22;12539;48.808;11.292;2022-07-29T08:06:10;30.30;44.10
24402;DHT22;12539;48.808;11.292;2022-07-29T08:08:36;30.20;43.60
24402;DHT22;12539;48.808;11.292;2022-07-29T08:11:02;30.10;44.20
24402;DHT22;12539;48.808;11.292;2022-07-29T08:13:29;29.90;44.30
24402;DHT22;12539;48.808;11.292;2022-07-29T08:15:56;29.90;44.50
24402;DHT22;12539;48.808;11.292;2022-07-29T08:18:37;30.00;43.70
24402;DHT22;12539;48.808;11.292;2022-07-29T08:21:03;30.10;43.80
24402;DHT22;12539;48.808;11.292;2022-07-29T08:23:29;30.30;43.50
24402;DHT22;12539;48.808;11.292;2022-07-29T08:26:07;30.40;43.30
24402;DHT22;12539;48.808;11.292;2022-07-29T08:28:40;30.40;42.80
24402;DHT22;12539;48.808;11.292;2022-07-29T08:31:06;30.20;43.20
24402;DHT22;12539;48.808;11.292;2022-07-29T08:33:35;30.00;44.10
24402;DHT22;12539;48.808;11.292;2022-07-29T08:36:07;30.00;44.60
24402;DHT22;12539;48.808;11.292;2022-07-29T08:38:33;30.00;44.30
24402;DHT22;12539;48.808;11.292;2022-07-29T08:41:02;29.90;44.40
24402;DHT22;12539;48.808;11.292;2022-07-29T08:43:28;29.90;44.70
24402;DHT22;12539;48.808;11.292;2022-07-29T08:45:54;29.90;44.90
24402;DHT22;12539;48.808;11.292;2022-07-29T08:48:23;30.00;45.00
24402;DHT22;12539;48.808;11.292;2022-07-29T08:50:54;30.10;44.70
24402;DHT22;12539;48.808;11.292;2022-07-29T08:53:21;30.20;44.50
24402;DHT22;12539;48.808;11.292;2022-07-29T08:55:49;30.30;44.10
24402;DHT22;12539;48.808;11.292;2022-07-29T08:58:16;30.50;43.70
24402;DHT22;12539;48.808;11.292;2022-07-29T09:00:50;30.50;43.60
24402;DHT22;12539;48.808;11.292;2022-07-29T09:03:18;30.60;43.30
24402;DHT22;12539;48.808;11.292;2022-07-29T09:05:46;30.60;42.90
24402;DHT22;12539;48.808;11.292;2022-07-29T09:08:12;30.70;42.80
24402;DHT22;12539;48.808;11.292;2022-07-29T09:10:39;30.70;42.70
24402;DHT22;12539;48.808;11.292;2022-07-29T09:13:05;30.80;41.90
24402;DHT22;12539;48.808;11.292;2022-07-29T09:15:31;30.80;42.00
24402;DHT22;12539;48.808;11.292;2022-07-29T09:17:57;30.80;42.20
24402;DHT22;12539;48.808;11.292;2022-07-29T09:20:24;30.80;42.10
24402;DHT22;12539;48.808;11.292;2022-07-29T09:22:52;30.90;41.60
24402;DHT22;12539;48.808;11.292;2022-07-29T09:25:36;30.70;41.60
24402;DHT22;12539;48.808;11.292;2022-07-29T09:28:13;30.50;42.30
24402;DHT22;12539;48.808;11.292;2022-07-29T09:33:16;30.50;42.80
24402;DHT22;12539;48.808;11.292;2022-07-29T09:35:42;30.50;42.60
24402;DHT22;12539;48.808;11.292;2022-07-29T09:38:12;30.60;42.80
24402;DHT22;12539;48.808;11.292;2022-07-29T09:40:38;30.60;42.90
24402;DHT22;12539;48.808;11.292;2022-07-29T09:43:13;30.70;42.70
24402;DHT22;12539;48.808;11.292;2022-07-29T09:45:39;30.80;41.90
24402;DHT22;12539;48.808;11.292;2022-07-29T09:48:19;31.00;42.00
24402;DHT22;12539;48.808;11.292;2022-07-29T09:50:46;31.30;41.20
24402;DHT22;12539;48.808;11.292;2022-07-29T09:55:59;31.60;40.00
24402;DHT22;12539;48.808;11.292;2022-07-29T09:58:25;31.70;39.70
24402;DHT22;12539;48.808;11.292;2022-07-29T10:00:52;32.00;38.90
24402;DHT22;12539;48.808;11.292;2022-07-29T10:03:18;32.10;37.80
24402;DHT22;12539;48.808;11.292;2022-07-29T10:05:45;32.00;37.00
24402;DHT22;12539;48.808;11.292;2022-07-29T10:08:12;32.00;36.40
24402;DHT22;12539;48.808;11.292;2022-07-29T10:10:40;32.00;36.00
24402;DHT22;12539;48.808;11.292;2022-07-29T10:13:11;32.00;36.80
24402;DHT22;12539;48.808;11.292;2022-07-29T10:15:39;32.20;37.30
24402;DHT22;12539;48.808;11.292;2022-07-29T10:18:10;32.60;36.60
24402;DHT22;12539;48.808;11.292;2022-07-29T10:20:37;32.70;36.50
24402;DHT22;12539;48.808;11.292;2022-07-29T10:23:03;32.80;35.20
24402;DHT22;12539;48.808;11.292;2022-07-29T10:25:30;32.60;36.00
24402;DHT22;12539;48.808;11.292;2022-07-29T10:27:56;32.60;36.40
24402;DHT22;12539;48.808;11.292;2022-07-29T10:30:24;32.60;37.10
24402;DHT22;12539;48.808;11.292;2022-07-29T10:35:53;32.60;37.00
24402;DHT22;12539;48.808;11.292;2022-07-29T10:44:06;32.60;37.80
24402;DHT22;12539;48.808;11.292;2022-07-29T10:46:38;32.60;37.50
24402;DHT22;12539;48.808;11.292;2022-07-29T10:52:08;32.70;36.70
24402;DHT22;12539;48.808;11.292;2022-07-29T10:59:42;32.60;36.70
24402;DHT22;12539;48.808;11.292;2022-07-29T11:05:05;32.50;37.20
24402;DHT22;12539;48.808;11.292;2022-07-29T11:07:32;32.40;37.20
24402;DHT22;12539;48.808;11.292;2022-07-29T11:15:10;32.30;36.80
24402;DHT22;12539;48.808;11.292;2022-07-29T11:22:58;32.10;37.30
24402;DHT22;12539;48.808;11.292;2022-07-29T11:25:24;32.20;37.10
24402;DHT22;12539;48.808;11.292;2022-07-29T11:27:52;32.40;36.50
24402;DHT22;12539;48.808;11.292;2022-07-29T11:30:19;32.60;36.40
24402;DHT22;12539;48.808;11.292;2022-07-29T11:32:45;32.70;35.70
24402;DHT22;12539;48.808;11.292;2022-07-29T11:35:23;32.70;35.50
24402;DHT22;12539;48.808;11.292;2022-07-29T11:38:26;32.80;36.40
24402;DHT22;12539;48.808;11.292;2022-07-29T11:43:52;33.10;36.80
24402;DHT22;12539;48.808;11.292;2022-07-29T11:46:45;33.30;37.00
24402;DHT22;12539;48.808;11.292;2022-07-29T11:49:22;33.40;36.40
24402;DHT22;12539;48.808;11.292;2022-07-29T11:51:56;33.30;36.40
24402;DHT22;12539;48.808;11.292;2022-07-29T11:54:31;33.40;36.50
24402;DHT22;12539;48.808;11.292;2022-07-29T11:56:58;33.50;35.90
24402;DHT22;12539;48.808;11.292;2022-07-29T11:59:24;33.50;35.40
24402;DHT22;12539;48.808;11.292;2022-07-29T12:01:59;33.40;35.70
24402;DHT22;12539;48.808;11.292;2022-07-29T12:04:26;33.40;35.60
24402;DHT22;12539;48.808;11.292;2022-07-29T12:06:55;33.50;35.80
24402;DHT22;12539;48.808;11.292;2022-07-29T12:09:22;33.60;35.60
24402;DHT22;12539;48.808;11.292;2022-07-29T12:11:49;33.70;35.20
24402;DHT22;12539;48.808;11.292;2022-07-29T12:14:29;33.70;35.40
24402;DHT22;12539;48.808;11.292;2022-07-29T12:16:55;33.70;35.30
24402;DHT22;12539;48.808;11.292;2022-07-29T12:19:21;33.60;35.40
24402;DHT22;12539;48.808;11.292;2022-07-29T12:21:49;33.50;35.80
24402;DHT22;12539;48.808;11.292;2022-07-29T12:24:15;33.40;36.30
24402;DHT22;12539;48.808;11.292;2022-07-29T12:26:54;33.40;36.60
24402;DHT22;12539;48.808;11.292;2022-07-29T12:29:20;33.40;36.60
24402;DHT22;12539;48.808;11.292;2022-07-29T12:31:50;33.20;36.90
24402;DHT22;12539;48.808;11.292;2022-07-29T12:34:20;33.10;37.00
24402;DHT22;12539;48.808;11.292;2022-07-29T12:36:51;32.80;36.40
24402;DHT22;12539;48.808;11.292;2022-07-29T12:39:17;32.70;36.80
24402;DHT22;12539;48.808;11.292;2022-07-29T12:41:44;32.70;37.00
24402;DHT22;12539;48.808;11.292;2022-07-29T12:44:11;32.80;36.60
24402;DHT22;12539;48.808;11.292;2022-07-29T12:46:37;32.90;36.60
24402;DHT22;12539;48.808;11.292;2022-07-29T12:49:03;32.90;36.50
24402;DHT22;12539;48.808;11.292;2022-07-29T12:51:34;33.00;36.70
24402;DHT22;12539;48.808;11.292;2022-07-29T12:54:10;33.10;36.70
24402;DHT22;12539;48.808;11.292;2022-07-29T12:56:43;33.20;36.60
24402;DHT22;12539;48.808;11.292;2022-07-29T13:01:39;33.20;36.90
24402;DHT22;12539;48.808;11.292;2022-07-29T13:04:04;33.10;37.30
24402;DHT22;12539;48.808;11.292;2022-07-29T13:06:44;32.90;37.70
24402;DHT22;12539;48.808;11.292;2022-07-29T13:09:16;32.90;38.00
24402;DHT22;12539;48.808;11.292;2022-07-29T13:11:52;32.70;38.30
24402;DHT22;12539;48.808;11.292;2022-07-29T13:14:33;32.60;38.70
24402;DHT22;12539;48.808;11.292;2022-07-29T13:17:01;32.50;39.30
24402;DHT22;12539;48.808;11.292;2022-07-29T13:19:40;32.60;39.50
24402;DHT22;12539;48.808;11.292;2022-07-29T13:22:26;32.70;39.50
24402;DHT22;12539;48.808;11.292;2022-07-29T13:25:00;32.60;39.30
24402;DHT22;12539;48.808;11.292;2022-07-29T13:27:32;32.40;39.10
24402;DHT22;12539;48.808;11.292;2022-07-29T13:29:59;32.20;39.30
24402;DHT22;12539;48.808;11.292;2022-07-29T13:32:27;32.00;39.50
24402;DHT22;12539;48.808;11.292;2022-07-29T13:34:54;31.80;39.60
24402;DHT22;12539;48.808;11.292;2022-07-29T13:37:20;31.60;39.70
24402;DHT22;12539;48.808;11.292;2022-07-29T13:39:46;31.60;39.80
24402;DHT22;12539;48.808;11.292;2022-07-29T13:42:13;31.50;39.70
24402;DHT22;12539;48.808;11.292;2022-07-29T13:44:39;31.50;39.90
24402;DHT22;12539;48.808;11.292;2022-07-29T13:47:06;31.60;39.80
24402;DHT22;12539;48.808;11.292;2022-07-29T13:49:32;31.70;39.50
24402;DHT22;12539;48.808;11.292;2022-07-29T13:51:58;31.70;39.50
24402;DHT22;12539;48.808;11.292;2022-07-29T13:54:23;31.70;39.50
24402;DHT22;12539;48.808;11.292;2022-07-29T13:56:50;31.70;39.50
24402;DHT22;12539;48.808;11.292;2022-07-29T13:59:16;31.70;39.70
24402;DHT22;12539;48.808;11.292;2022-07-29T14:01:42;31.70;39.60
24402;DHT22;12539;48.808;11.292;2022-07-29T14:04:09;31.70;39.50
24402;DHT22;12539;48.808;11.292;2022-07-29T14:06:35;31.80;39.60
24402;DHT22;12539;48.808;11.292;2022-07-29T14:09:02;31.80;39.70
24402;DHT22;12539;48.808;11.292;2022-07-29T14:11:28;31.80;40.10
24402;DHT22;12539;48.808;11.292;2022-07-29T14:13:53;31.80;40.60
24402;DHT22;12539;48.808;11.292;2022-07-29T14:16:19;31.70;41.00
24402;DHT22;12539;48.808;11.292;2022-07-29T14:18:45;31.70;41.30
24402;DHT22;12539;48.808;11.292;2022-07-29T14:21:11;31.70;41.30
24402;DHT22;12539;48.808;11.292;2022-07-29T14:23:37;31.70;41.50
24402;DHT22;12539;48.808;11.292;2022-07-29T14:26:02;31.50;41.70
24402;DHT22;12539;48.808;11.292;2022-07-29T14:28:28;31.50;41.80
24402;DHT22;12539;48.808;11.292;2022-07-29T14:30:54;31.30;41.70
24402;DHT22;12539;48.808;11.292;2022-07-29T14:33:20;31.10;41.80
24402;DHT22;12539;48.808;11.292;2022-07-29T14:35:46;31.00;42.20
24402;DHT22;12539;48.808;11.292;2022-07-29T14:38:12;30.90;42.50
24402;DHT22;12539;48.808;11.292;2022-07-29T14:40:37;30.80;42.40
24402;DHT22;12539;48.808;11.292;2022-07-29T14:43:03;30.60;42.50
24402;DHT22;12539;48.808;11.292;2022-07-29T14:45:29;30.50;42.80
24402;DHT22;12539;48.808;11.292;2022-07-29T14:47:55;30.40;42.90
24402;DHT22;12539;48.808;11.292;2022-07-29T14:50:21;30.30;43.00
24402;DHT22;12539;48.808;11.292;2022-07-29T14:52:47;30.20;42.80
24402;DHT22;12539;48.808;11.292;2022-07-29T14:55:12;30.10;42.10
24402;DHT22;12539;48.808;11.292;2022-07-29T14:57:38;30.00;41.50
24402;DHT22;12539;48.808;11.292;2022-07-29T15:00:05;30.00;41.60
24402;DHT22;12539;48.808;11.292;2022-07-29T15:02:34;29.90;41.60
24402;DHT22;12539;48.808;11.292;2022-07-29T15:05:00;29.90;41.20
24402;DHT22;12539;48.808;11.292;2022-07-29T15:07:26;29.80;41.50
24402;DHT22;12539;48.808;11.292;2022-07-29T15:09:52;29.80;41.50
24402;DHT22;12539;48.808;11.292;2022-07-29T15:12:18;29.90;41.50
24402;DHT22;12539;48.808;11.292;2022-07-29T15:14:43;29.90;41.40
24402;DHT22;12539;48.808;11.292;2022-07-29T15:17:09;30.00;41.40
24402;DHT22;12539;48.808;11.292;2022-07-29T15:19:35;30.00;40.80
24402;DHT22;12539;48.808;11.292;2022-07-29T15:22:01;30.10;40.60
24402;DHT22;12539;48.808;11.292;2022-07-29T15:24:27;30.10;40.40
24402;DHT22;12539;48.808;11.292;2022-07-29T15:26:52;30.20;40.10
24402;DHT22;12539;48.808;11.292;2022-07-29T15:29:18;30.10;39.80
24402;DHT22;12539;48.808;11.292;2022-07-29T15:31:44;30.00;39.80
24402;DHT22;12539;48.808;11.292;2022-07-29T15:34:10;30.00;39.70
24402;DHT22;12539;48.808;11.292;2022-07-29T15:36:36;29.80;39.60
24402;DHT22;12539;48.808;11.292;2022-07-29T15:39:01;29.70;39.60
24402;DHT22;12539;48.808;11.292;2022-07-29T15:41:27;29.50;39.50
24402;DHT22;12539;48.808;11.292;2022-07-29T15:43:53;29.50;40.00
24402;DHT22;12539;48.808;11.292;2022-07-29T15:46:20;29.50;40.00
24402;DHT22;12539;48.808;11.292;2022-07-29T15:49:05;29.40;40.10
24402;DHT22;12539;48.808;11.292;2022-07-29T15:51:32;29.30;40.10
24402;DHT22;12539;48.808;11.292;2022-07-29T15:53:58;29.40;40.30
24402;DHT22;12539;48.808;11.292;2022-07-29T15:56:23;29.30;40.30
24402;DHT22;12539;48.808;11.292;2022-07-29T15:58:50;29.30;40.50
24402;DHT22;12539;48.808;11.292;2022-07-29T16:01:16;29.30;41.40
24402;DHT22;12539;48.808;11.292;2022-07-29T16:03:42;29.30;40.80
24402;DHT22;12539;48.808;11.292;2022-07-29T16:06:08;29.40;40.70
24402;DHT22;12539;48.808;11.292;2022-07-29T16:08:34;29.40;40.30
24402;DHT22;12539;48.808;11.292;2022-07-29T16:10:59;29.40;39.70
24402;DHT22;12539;48.808;11.292;2022-07-29T16:13:25;29.30;40.00
24402;DHT22;12539;48.808;11.292;2022-07-29T16:15:50;29.20;39.10